This demonstration page uses our WeatherBlox Daily Observations layout. Learn more.

Left ArrowRight Arrow

41.86663, -103.66717

Hourly Observations for September 16, 2020

Temp ( °F °C ) Dew Point ( °F °C ) Humidity (%) Winds ( mph kmh ) Pressure ( in mb ) Visibility ( mi km ) Precip ( " mm )
12:53 am 00:53 Clear 62 16.7 47 8.3 58 58 NNW 6 9 30.04 1017 10 16.0934 0 0
1:53 am 01:53 Clear 58 14.4 47 8.3 67 67 WNW 7 11 30.06 1018 9 14.48406 0 0
2:53 am 02:53 Clear 53 11.7 45 7.2 74 74 NW 10 17 30.08 1019 10 16.0934 0 0
3:53 am 03:53 Clear 52 11.1 45 7.2 77 77 NW 8 13 30.1 1019 9 14.48406 0 0
4:53 am 04:53 Clear 50 10 46 7.8 86 86 NW 7 11 30.14 1021 8 12.87472 0 0
5:53 am 05:53 Clear 48 8.9 45 7.2 89 89 NW 6 9 30.18 1022 8 12.87472 0 0
6:53 am 06:53 Sunny with Mist and Fog 48 8.9 45 7.2 89 89 NW 3 6 30.24 1024 6 9.65604 0 0
7:53 am 07:53 Sunny with Mist and Fog 52 11.1 48 8.9 86 86 NW 6 9 30.27 1025 6 9.65604 0 0
8:53 am 08:53 Hazy 57 13.9 49 9.4 74 74 NW 3 6 30.29 1026 5 8.0467 0 0
9:53 am 09:53 Hazy 61 16.1 48 8.9 63 63 VRB 5 7 30.29 1026 6 9.65604 0 0
10:53 am 10:53 Sunny 63 17.2 47 8.3 56 56 VRB 3 6 30.29 1026 7 11.26538 0 0
11:53 am 11:53 Sunny 69 20.6 47 8.3 45 45 NNE 8 13 30.27 1025 7 11.26538 0 0
12:53 pm 12:53 Hazy 71 21.7 45 7.2 39 39 E 8 13 30.25 1025 6 9.65604 0 0
1:53 pm 13:53 Hazy 74 23.3 46 7.8 37 37 Calm 30.25 1024 6 9.65604 0 0
2:53 pm 14:53 Hazy 73 22.8 45 7.2 37 37 S 6 9 30.24 1024 5 8.0467 0 0
3:53 pm 15:53 Hazy 73 22.8 44 6.7 35 35 ESE 8 13 30.21 1023 5 8.0467 0 0
4:53 pm 16:53 Hazy 73 22.8 45 7.2 37 37 SE 10 17 30.2 1023 5 8.0467 0 0
5:53 pm 17:53 Hazy 71 21.7 45 7.2 39 39 ESE 12 19 30.2 1023 5 8.0467 0 0
6:53 pm 18:53 Hazy 66 18.9 46 7.8 49 49 ESE 7 11 30.2 1023 5 8.0467 0 0
7:53 pm 19:53 Hazy 59 15 45 7.2 60 60 E 7 11 30.21 1023 6 9.65604 0 0
8:53 pm 20:53 Clear 56 13.3 45 7.2 67 67 E 7 11 30.21 1023 7 11.26538 0 0
9:53 pm 21:53 Clear 54 12.2 45 7.2 72 72 E 8 13 30.2 1023 7 11.26538 0 0
10:53 pm 22:53 Clear 51 10.6 44 6.7 77 77 E 6 9 30.19 1023 7 11.26538 0 0
11:53 pm 23:53 Hazy 50 10 44 6.7 80 80 E 7 11 30.17 1022 6 9.65604 0 0

Powered by AerisWeather